LIPZ/VCE METAR and TAF weather

Enter ICAO airport designator
Station Type Date Time Source
LIPZ METAR 2022/05/25 00:20 UTC NOAA

LIPZ 250020Z 04010KT CAVOK 18/15 Q1009 NOSIG


Station Type Date Time Source
LIPZ Decoded METAR 2022/05/25 00:20 UTC NOAA

Venezia / Tessera, Italy (LIPZ) 45-30N 012-20E 6M
May 24, 2022 - 08:20 PM EDT / 2022.05.25 0020 UTC
Wind: from the NE (040 degrees) at 12 MPH (10 KT):0
Visibility: greater than 7 mile(s):0
Temperature: 64 F (18 C)
Dew Point: 59 F (15 C)
Relative Humidity: 82%
Pressure (altimeter): 29.80 in. Hg (1009 hPa)
ob: LIPZ 250020Z 04010KT CAVOK 18/15 Q1009 NOSIG
cycle: 0

Station Type Date Time Source
LIPZ TAF 2022/05/24 18:21 UTC NOAA

TAF LIPZ 241700Z 2418/2524 16010KT 9999 SCT040
TEMPO 2419/2501 RA
BECMG 2422/2424 05010KT
BECMG 2505/2507 VRB05KT
BECMG 2509/2511 15013KT
BECMG 2518/2520 05010KT

Example: see airport list